Weather History for Pella, IA

Change the Weather History Date:

Tuesday, November 6, 2012

  Actual Average (KOXV) Record (KOXV)
Temperature  
Mean Temperature 46 °F -  
Max Temperature 51 °F 50 °F 75 °F (2001)
Min Temperature 40 °F 34 °F 10 °F (1959)
Degree Days  
Heating Degree Days 20    
Moisture  
Dew Point 38 °F    
Average Humidity 79    
Maximum Humidity 95    
Minimum Humidity 58    
Precipitation  
Precipitation 0.00 in - - ()
Sea Level Pressure  
Sea Level Pressure 29.96 in    
Wind  
Wind Speed 8 mph (West)    
Max Wind Speed 21 mph    
Max Gust Speed 29 mph    
Visibility 7 miles    
Events Rain    
Averages and records for this station are not official NWS values.
T = Trace of Precipitation, MM = Missing Value Source: NWS Daily Summary

Daily Weather History Graph

Daily Weather History Graph

Search for Another Location

Airport:

Trip Planner

Search our weather history database for the weather conditions in past years. The results will help you decide how hot, cold, wet, or windy it might be!

Date:

Astronomy

Nov. 06, 2012 Rise Set
Actual Time 6:49 AM CST 5:00 PM CST
Civil Twilight 6:20 AM CST 5:29 PM CST
Nautical Twilight 5:47 AM CST 6:02 PM CST
Astronomical Twilight 5:15 AM CST 6:34 PM CST
Moon 11:40 PM CST (11/6) 12:41 PM CST (11/6)
Length of Visible Light 11h 08m
Length of Day
10h 10m
Waning Gibbous, 53% of the Moon is Illuminated
Nov 6
Waning Gibbous
Nov 6
Last Quarter
Nov 13
New
Nov 20
First Quarter
Nov 28
Full

Hourly Weather History & Observations

Time (CST) Temp. Windchill Dew Point Humidity Pressure Visibility Wind Dir Wind Speed Gust Speed Precip Events Conditions
12:15 AM 41.0 °F 39.0 °F 35.6 °F 81% 30.09 in 7.0 mi SSW 3.5 mph - N/A   Overcast
12:35 AM 41.0 °F 38.0 °F 35.6 °F 81% 30.06 in 7.0 mi SSE 4.6 mph - N/A   Overcast
12:55 AM 40.6 °F 37.5 °F 35.8 °F 83% 30.05 in 7.0 mi SSE 4.6 mph - N/A   Overcast
1:15 AM 40.5 °F 36.5 °F 35.8 °F 83% 30.04 in 7.0 mi South 5.8 mph - N/A   Overcast
1:35 AM 40.5 °F 37.3 °F 36.0 °F 84% 30.05 in 7.0 mi South 4.6 mph - N/A   Overcast
1:55 AM 40.5 °F 38.4 °F 36.5 °F 86% 30.06 in 7.0 mi SSW 3.5 mph - N/A   Overcast
2:15 AM 40.5 °F 38.4 °F 36.7 °F 86% 30.06 in 7.0 mi SW 3.5 mph - N/A   Mostly Cloudy
2:35 AM 40.6 °F 38.6 °F 36.9 °F 86% 30.06 in 7.0 mi SW 3.5 mph - N/A   Mostly Cloudy
2:55 AM 40.5 °F 37.3 °F 36.5 °F 86% 30.04 in 7.0 mi South 4.6 mph - N/A   Mostly Cloudy
3:15 AM 40.5 °F 35.8 °F 36.9 °F 87% 30.03 in 5.0 mi South 6.9 mph - N/A   Mostly Cloudy
3:35 AM 40.5 °F 37.3 °F 37.2 °F 88% 30.01 in 5.0 mi South 4.6 mph - N/A   Mostly Cloudy
3:55 AM 40.3 °F 35.5 °F 37.4 °F 89% 30.00 in 5.0 mi South 6.9 mph - N/A   Mostly Cloudy
4:15 AM 40.3 °F 35.5 °F 37.6 °F 90% 29.99 in 5.0 mi South 6.9 mph - N/A   Mostly Cloudy
4:35 AM 40.1 °F 34.1 °F 37.6 °F 91% 29.97 in 5.0 mi South 9.2 mph - N/A   Mostly Cloudy
4:55 AM 40.1 °F 36.1 °F 37.8 °F 91% 29.98 in 5.0 mi South 5.8 mph - N/A   Overcast
5:15 AM 40.1 °F 35.3 °F 37.8 °F 91% 29.99 in 5.0 mi SSW 6.9 mph - N/A   Overcast
5:35 AM 40.1 °F 35.3 °F 37.8 °F 91% 29.97 in 5.0 mi SSW 6.9 mph - N/A   Overcast
5:55 AM 40.1 °F 35.3 °F 37.8 °F 91% 29.96 in 5.0 mi South 6.9 mph - N/A   Overcast
6:15 AM 40.1 °F 33.6 °F 37.8 °F 91% 29.95 in 4.0 mi South 10.4 mph - N/A   Light Drizzle
6:35 AM 40.1 °F 34.7 °F 38.1 °F 93% 29.94 in 4.0 mi South 8.1 mph - N/A   Overcast
6:55 AM 40.3 °F 33.9 °F 38.3 °F 93% 29.94 in 4.0 mi SSW 10.4 mph - N/A   Overcast
7:15 AM 40.5 °F 35.8 °F 38.3 °F 92% 29.95 in 3.0 mi SW 6.9 mph - N/A   Overcast
7:35 AM 40.5 °F 35.1 °F 38.3 °F 92% 29.95 in 3.0 mi SSW 8.1 mph - N/A Rain Light Rain
7:55 AM 40.5 °F 35.1 °F 38.5 °F 93% 29.96 in 4.0 mi SW 8.1 mph - N/A   Overcast
8:15 AM 40.6 °F 34.8 °F 38.5 °F 92% 29.95 in 5.0 mi SSW 9.2 mph - N/A   Overcast
8:35 AM 40.6 °F 34.3 °F 38.5 °F 92% 29.94 in 2.0 mi SSW 10.4 mph - N/A   Overcast
8:55 AM 40.5 °F 34.1 °F 38.7 °F 93% 29.93 in 1.2 mi SSW 10.4 mph 16.1 mph N/A   Drizzle
9:15 AM 40.6 °F 35.4 °F 39.0 °F 94% 29.93 in 1.2 mi SW 8.1 mph - N/A Rain Light Rain
9:35 AM 41.0 °F 35.2 °F 39.4 °F 94% 29.93 in 1.2 mi SSW 9.2 mph - N/A Rain Light Rain
9:55 AM 41.2 °F 35.5 °F 39.7 °F 95% 29.92 in 1.2 mi SW 9.2 mph - N/A Rain Light Rain
10:15 AM 41.9 °F 35.9 °F 40.5 °F 95% 29.91 in 1.8 mi SW 10.4 mph 16.1 mph N/A   Overcast
10:35 AM 42.3 °F 37.3 °F 41.0 °F 95% 29.91 in 3.0 mi WSW 8.1 mph - N/A   Overcast
10:55 AM 43.2 °F 37.4 °F 41.5 °F 94% 29.91 in 3.0 mi West 10.4 mph - N/A   Overcast
11:15 AM 44.1 °F 39.0 °F 41.9 °F 92% 29.90 in 4.0 mi West 9.2 mph - N/A   Overcast
11:35 AM 46.4 °F 40.1 °F 43.0 °F 88% 29.89 in 7.0 mi WNW 15.0 mph - N/A   Overcast
11:55 AM 49.3 °F - 42.6 °F 78% 29.89 in 10.0 mi NW 20.7 mph 26.5 mph N/A   Mostly Cloudy
12:15 PM 50.4 °F - 40.6 °F 69% 29.89 in 10.0 mi NW 18.4 mph - N/A   Mostly Cloudy
12:35 PM 49.6 °F - 39.6 °F 68% 29.88 in 10.0 mi NNW 15.0 mph 23.0 mph N/A   Mostly Cloudy
12:55 PM 49.8 °F - 39.2 °F 67% 29.89 in 10.0 mi NW 16.1 mph 21.9 mph N/A   Mostly Cloudy
1:15 PM 51.1 °F - 39.0 °F 63% 29.88 in 10.0 mi NW 17.3 mph 21.9 mph N/A   Mostly Cloudy
1:35 PM 51.1 °F - 39.7 °F 65% 29.89 in 10.0 mi NW 16.1 mph 25.3 mph N/A   Mostly Cloudy
1:55 PM 51.8 °F - 38.7 °F 61% 29.88 in 10.0 mi NW 15.0 mph - N/A   Scattered Clouds
2:15 PM 51.8 °F - 37.2 °F 58% 29.88 in 10.0 mi NW 18.4 mph 28.8 mph N/A   Scattered Clouds
2:35 PM 51.1 °F - 38.1 °F 61% 29.89 in 10.0 mi WNW 13.8 mph 25.3 mph N/A   Scattered Clouds
2:55 PM 51.3 °F - 37.8 °F 60% 29.89 in 10.0 mi NW 19.6 mph 24.2 mph N/A   Scattered Clouds
3:15 PM 50.2 °F - 37.2 °F 61% 29.90 in 10.0 mi NW 16.1 mph 24.2 mph N/A   Mostly Cloudy
3:35 PM 49.6 °F - 36.9 °F 61% 29.91 in 10.0 mi NW 12.7 mph 21.9 mph N/A   Mostly Cloudy
3:55 PM 49.1 °F - 37.6 °F 64% 29.91 in 10.0 mi NW 11.5 mph - N/A   Mostly Cloudy
4:15 PM 49.1 °F - 37.6 °F 64% 29.92 in 10.0 mi NW 11.5 mph - N/A   Mostly Cloudy
4:35 PM 48.7 °F - 37.6 °F 65% 29.92 in 10.0 mi NW 10.4 mph - N/A   Mostly Cloudy
4:55 PM 48.2 °F - 37.6 °F 67% 29.93 in 10.0 mi WNW 10.4 mph - N/A   Mostly Cloudy
5:15 PM 48.2 °F - 37.6 °F 67% 29.93 in 10.0 mi WNW 10.4 mph - N/A   Mostly Cloudy
5:35 PM 47.8 °F - 38.1 °F 69% 29.94 in 10.0 mi NW 10.4 mph - N/A Rain Light Rain
5:55 PM 46.4 °F 42.9 °F 39.4 °F 77% 29.95 in 10.0 mi NW 6.9 mph - N/A Rain Light Rain
6:15 PM 45.7 °F 41.0 °F 39.4 °F 79% 29.96 in 10.0 mi NW 9.2 mph - N/A   Overcast
6:35 PM 45.5 °F 41.3 °F 39.6 °F 80% 29.96 in 10.0 mi NW 8.1 mph - N/A   Overcast
6:55 PM 45.7 °F 39.8 °F 38.8 °F 77% 29.97 in 10.0 mi NW 12.7 mph 18.4 mph N/A   Overcast
7:15 PM 45.9 °F 39.1 °F 36.3 °F 69% 29.97 in 10.0 mi NW 16.1 mph 20.7 mph N/A   Overcast
7:35 PM 45.5 °F 38.9 °F 35.6 °F 68% 29.97 in 10.0 mi NW 15.0 mph 20.7 mph N/A   Mostly Cloudy
7:55 PM 45.3 °F 39.7 °F 35.1 °F 67% 29.97 in 10.0 mi NW 11.5 mph 20.7 mph N/A   Overcast
8:15 PM 45.0 °F 39.7 °F 35.1 °F 68% 29.96 in 10.0 mi NW 10.4 mph - N/A   Overcast
8:35 PM 44.4 °F 39.5 °F 35.6 °F 71% 29.97 in 10.0 mi WNW 9.2 mph - N/A   Overcast
8:55 PM 44.6 °F 38.4 °F 34.9 °F 69% 29.97 in 10.0 mi WNW 12.7 mph - N/A   Overcast
9:15 PM 44.8 °F 39.0 °F 35.2 °F 69% 29.97 in 10.0 mi WNW 11.5 mph - N/A   Overcast
9:35 PM 44.6 °F 39.2 °F 35.6 °F 71% 29.97 in 10.0 mi NW 10.4 mph - N/A   Overcast
9:55 PM 44.8 °F 39.0 °F 35.4 °F 70% 29.96 in 10.0 mi NW 11.5 mph 17.3 mph N/A   Overcast
10:15 PM 44.6 °F 39.2 °F 35.6 °F 71% 29.96 in 10.0 mi NW 10.4 mph - N/A   Overcast
10:35 PM 44.6 °F 39.7 °F 35.6 °F 71% 29.96 in 10.0 mi WNW 9.2 mph - N/A   Overcast
10:55 PM 44.8 °F 39.0 °F 35.1 °F 69% 29.96 in 10.0 mi WNW 11.5 mph - N/A   Overcast
11:15 PM 44.8 °F 39.0 °F 35.1 °F 69% 29.96 in 10.0 mi WNW 11.5 mph - N/A   Overcast
11:35 PM 45.1 °F 38.1 °F 34.7 °F 67% 29.96 in 10.0 mi NW 16.1 mph 21.9 mph N/A   Overcast
11:55 PM 45.0 °F 37.4 °F 34.0 °F 65% 29.97 in 10.0 mi NW 18.4 mph - N/A   Overcast